Time;durP1;ratioP1;P1;durP2;ratioP2;P2;SDS_P1;SDS_P2;PMS_P1;PMS_P2;Temp;Humidity;BMP_temperature;BMP_pressure;BME280_temperature;BME280_humidity;BME280_pressure;Samples;Min_cycle;Max_cycle;Signal;HPM_P1;HPM_P2
2024/04/22 00:02:19;;;;;;;;;;;;;;;;;;5449799;26;20691;-60
2024/04/22 00:04:44;;;;;;;;;;;;;;;;;;5451491;26;19940;-60
2024/04/22 00:07:11;;;;;;;;;;;;;;;;;;5424339;26;20285;-59
2024/04/22 00:09:36;;;;;;;;;;;;;;;;;;5417603;26;20397;-60
2024/04/22 00:12:01;;;;;;;;;;;;;;;;;;5417577;26;19975;-61
2024/04/22 00:14:26;;;;;;;;;;;;;;;;;;5450605;26;19936;-61
2024/04/22 00:16:51;;;;;;;;;;;;;;;;;;5452112;26;19939;-60
2024/04/22 00:19:16;;;;;;;;;;;;;;;;;;5452279;26;19961;-61
2024/04/22 00:21:42;;;;;;;;;;;;;;;;;;5452216;26;19998;-60
2024/04/22 00:24:07;;;;;;;;;;;;;;;;;;5450467;26;19935;-59
2024/04/22 00:26:32;;;;;;;;;;;;;;;;;;5451443;26;20637;-60
2024/04/22 00:28:57;;;;;;;;;;;;;;;;;;5452162;26;19929;-60
2024/04/22 00:31:22;;;;;;;;;;;;;;;;;;5452086;26;19928;-59
2024/04/22 00:33:48;;;;;;;;;;;;;;;;;;5427256;26;20006;-59
2024/04/22 00:36:13;;;;;;;;;;;;;;;;;;5417023;26;19933;-60
2024/04/22 00:38:38;;;;;;;;;;;;;;;;;;5430206;26;19928;-60
2024/04/22 00:41:03;;;;;;;;;;;;;;;;;;5451823;26;20374;-60
2024/04/22 00:43:28;;;;;;;;;;;;;;;;;;5454095;26;19928;-60
2024/04/22 00:45:53;;;;;;;;;;;;;;;;;;5451989;26;19928;-60
2024/04/22 00:48:19;;;;;;;;;;;;;;;;;;5451869;26;19929;-60
2024/04/22 00:50:44;;;;;;;;;;;;;;;;;;5451599;26;19936;-60
2024/04/22 00:53:09;;;;;;;;;;;;;;;;;;5451552;26;19935;-59
2024/04/22 00:55:34;;;;;;;;;;;;;;;;;;5451625;26;19997;-60
2024/04/22 00:58:00;;;;;;;;;;;;;;;;;;5453092;26;20013;-60
2024/04/22 01:00:25;;;;;;;;;;;;;;;;;;5451929;26;19940;-61
2024/04/22 01:02:50;;;;;;;;;;;;;;;;;;5451206;26;19928;-60
2024/04/22 01:05:15;;;;;;;;;;;;;;;;;;5451594;26;19929;-61
2024/04/22 01:07:40;;;;;;;;;;;;;;;;;;5451616;26;19936;-60
2024/04/22 01:10:05;;;;;;;;;;;;;;;;;;5451347;26;19928;-60
2024/04/22 01:12:31;;;;;;;;;;;;;;;;;;5452619;26;19929;-60
2024/04/22 01:14:56;;;;;;;;;;;;;;;;;;5451110;26;19968;-59
2024/04/22 01:17:21;;;;;;;;;;;;;;;;;;5451452;26;20281;-60
2024/04/22 01:19:46;;;;;;;;;;;;;;;;;;5453381;26;19928;-60
2024/04/22 01:22:12;;;;;;;;;;;;;;;;;;5451498;26;19928;-60
2024/04/22 01:24:37;;;;;;;;;;;;;;;;;;5451553;26;19940;-62
2024/04/22 01:27:02;;;;;;;;;;;;;;;;;;5450973;26;20379;-62
2024/04/22 01:29:27;;;;;;;;;;;;;;;;;;5451002;26;20317;-62
2024/04/22 01:31:52;;;;;;;;;;;;;;;;;;5450775;26;19935;-62
2024/04/22 01:34:17;;;;;;;;;;;;;;;;;;5451013;26;19937;-62
2024/04/22 01:36:46;;;;;;;;;;;;;;;;;;5449940;26;19935;-62
2024/04/22 01:39:11;;;;;;;;;;;;;;;;;;5450674;26;20610;-62
2024/04/22 01:41:36;;;;;;;;;;;;;;;;;;5450939;26;20469;-62
2024/04/22 01:44:01;;;;;;;;;;;;;;;;;;5451880;26;20009;-62
2024/04/22 01:46:26;;;;;;;;;;;;;;;;;;5449300;26;20365;-62
2024/04/22 01:48:51;;;;;;;;;;;;;;;;;;5450891;26;20029;-62
2024/04/22 01:51:16;;;;;;;;;;;;;;;;;;5450803;26;19940;-63
2024/04/22 01:53:42;;;;;;;;;;;;;;;;;;5450146;26;19936;-62
2024/04/22 01:56:07;;;;;;;;;;;;;;;;;;5450101;26;19935;-62
2024/04/22 01:58:32;;;;;;;;;;;;;;;;;;5441047;26;20400;-62
2024/04/22 02:00:57;;;;;;;;;;;;;;;;;;5416126;26;20439;-62
2024/04/22 02:03:22;;;;;;;;;;;;;;;;;;5425044;26;20330;-62
2024/04/22 02:05:47;;;;;;;;;;;;;;;;;;5450555;26;19952;-62
2024/04/22 02:08:12;;;;;;;;;;;;;;;;;;5450987;26;20027;-62
2024/04/22 02:10:37;;;;;;;;;;;;;;;;;;5450684;26;19998;-62
2024/04/22 02:13:03;;;;;;;;;;;;;;;;;;5440842;26;19936;-62
2024/04/22 02:15:29;;;;;;;;;;;;;;;;;;5450605;26;20362;-62
2024/04/22 02:17:54;;;;;;;;;;;;;;;;;;5422663;26;20030;-62
2024/04/22 02:20:19;;;;;;;;;;;;;;;;;;5424220;26;19996;-62
2024/04/22 02:22:44;;;;;;;;;;;;;;;;;;5450352;26;20281;-62
2024/04/22 02:25:10;;;;;;;;;;;;;;;;;;5450397;26;19935;-66
2024/04/22 02:27:35;;;;;;;;;;;;;;;;;;5450289;26;19936;-62
2024/04/22 02:30:00;;;;;;;;;;;;;;;;;;5450135;26;19929;-62
2024/04/22 02:32:25;;;;;;;;;;;;;;;;;;5449529;26;20436;-62
2024/04/22 02:34:50;;;;;;;;;;;;;;;;;;5417183;26;20362;-60
2024/04/22 02:37:15;;;;;;;;;;;;;;;;;;5422755;26;19932;-60
2024/04/22 02:39:40;;;;;;;;;;;;;;;;;;5450328;26;20276;-60
2024/04/22 02:42:06;;;;;;;;;;;;;;;;;;5450083;26;20269;-60
2024/04/22 02:44:31;;;;;;;;;;;;;;;;;;5450381;26;20481;-60
2024/04/22 02:46:56;;;;;;;;;;;;;;;;;;5450068;26;20009;-60
2024/04/22 02:49:21;;;;;;;;;;;;;;;;;;5449360;26;20716;-61
2024/04/22 02:51:46;;;;;;;;;;;;;;;;;;5449491;26;20628;-60
2024/04/22 02:54:11;;;;;;;;;;;;;;;;;;5448894;26;19940;-60
2024/04/22 02:56:37;;;;;;;;;;;;;;;;;;5449774;26;20290;-60
2024/04/22 02:59:02;;;;;;;;;;;;;;;;;;5456729;26;20281;-60
2024/04/22 03:01:28;;;;;;;;;;;;;;;;;;5449958;26;20269;-60
2024/04/22 03:03:54;;;;;;;;;;;;;;;;;;5449768;26;19943;-61
2024/04/22 03:06:19;;;;;;;;;;;;;;;;;;5449878;26;19928;-60
2024/04/22 03:08:44;;;;;;;;;;;;;;;;;;5449058;26;19929;-60
2024/04/22 03:11:09;;;;;;;;;;;;;;;;;;5449628;26;19929;-59
2024/04/22 03:13:34;;;;;;;;;;;;;;;;;;5456887;26;19937;-60
2024/04/22 03:15:59;;;;;;;;;;;;;;;;;;5449130;26;19929;-59
2024/04/22 03:18:24;;;;;;;;;;;;;;;;;;5449797;26;19929;-60
2024/04/22 03:20:50;;;;;;;;;;;;;;;;;;5449420;26;19932;-59
2024/04/22 03:23:15;;;;;;;;;;;;;;;;;;5449394;26;19963;-60
2024/04/22 03:25:40;;;;;;;;;;;;;;;;;;5449363;26;19936;-60
2024/04/22 03:28:05;;;;;;;;;;;;;;;;;;5449210;26;19937;-60
2024/04/22 03:30:30;;;;;;;;;;;;;;;;;;5448667;26;19958;-60
2024/04/22 03:32:55;;;;;;;;;;;;;;;;;;5449221;26;19936;-60
2024/04/22 03:35:20;;;;;;;;;;;;;;;;;;5448808;26;20277;-59
2024/04/22 03:37:46;;;;;;;;;;;;;;;;;;5448723;26;20394;-60
2024/04/22 03:40:11;;;;;;;;;;;;;;;;;;5449227;26;20326;-60
2024/04/22 03:42:36;;;;;;;;;;;;;;;;;;5452794;26;19939;-60
2024/04/22 03:45:01;;;;;;;;;;;;;;;;;;5451685;26;20361;-60
2024/04/22 03:50:10;;;;;;;;;;;;;;;;;;5427705;26;20319;-60
2024/04/22 03:52:35;;;;;;;;;;;;;;;;;;5447808;26;19937;-59
2024/04/22 03:55:00;;;;;;;;;;;;;;;;;;5447458;26;19935;-59
2024/04/22 03:57:25;;;;;;;;;;;;;;;;;;5448306;26;19936;-60
2024/04/22 03:59:51;;;;;;;;;;;;;;;;;;5453908;26;20057;-60
2024/04/22 04:02:16;;;;;;;;;;;;;;;;;;5455445;26;19948;-60
2024/04/22 04:04:41;;;;;;;;;;;;;;;;;;5467367;26;20114;-60
2024/04/22 04:07:06;;;;;;;;;;;;;;;;;;5467075;26;20265;-61
2024/04/22 04:09:31;;;;;;;;;;;;;;;;;;5467705;26;19936;-59
2024/04/22 04:11:56;;;;;;;;;;;;;;;;;;5462491;26;19929;-60
2024/04/22 04:14:21;;;;;;;;;;;;;;;;;;5458606;26;19929;-61
2024/04/22 04:16:46;;;;;;;;;;;;;;;;;;5452096;26;19969;-61
2024/04/22 04:19:12;;;;;;;;;;;;;;;;;;5452093;26;20276;-60
2024/04/22 04:21:37;;;;;;;;;;;;;;;;;;5434385;26;19995;-60
2024/04/22 04:24:02;;;;;;;;;;;;;;;;;;5417260;26;19936;-60
2024/04/22 04:26:27;;;;;;;;;;;;;;;;;;5417470;26;19928;-60
2024/04/22 04:28:52;;;;;;;;;;;;;;;;;;5417177;26;19936;-60
2024/04/22 04:31:17;;;;;;;;;;;;;;;;;;5417336;26;20058;-61
2024/04/22 04:33:43;;;;;;;;;;;;;;;;;;5417287;26;20009;-61
2024/04/22 04:36:08;;;;;;;;;;;;;;;;;;5422558;26;19935;-60
2024/04/22 04:38:33;;;;;;;;;;;;;;;;;;5434437;26;19936;-60
2024/04/22 04:40:58;;;;;;;;;;;;;;;;;;5416816;26;20376;-61
2024/04/22 04:43:23;;;;;;;;;;;;;;;;;;5438634;26;19928;-60
2024/04/22 04:45:48;;;;;;;;;;;;;;;;;;5450640;26;19936;-60
2024/04/22 04:48:13;;;;;;;;;;;;;;;;;;5449653;26;19929;-61
2024/04/22 04:50:39;;;;;;;;;;;;;;;;;;5450843;26;19973;-61
2024/04/22 04:53:04;;;;;;;;;;;;;;;;;;5451170;26;19968;-60
2024/04/22 04:55:31;;;;;;;;;;;;;;;;;;5443521;26;20457;-63
2024/04/22 04:57:56;;;;;;;;;;;;;;;;;;5456548;26;19939;-63
2024/04/22 05:00:21;;;;;;;;;;;;;;;;;;5451486;26;19957;-62
2024/04/22 05:02:46;;;;;;;;;;;;;;;;;;5451659;26;19936;-63
2024/04/22 05:05:11;;;;;;;;;;;;;;;;;;5451468;26;19935;-63
2024/04/22 05:07:37;;;;;;;;;;;;;;;;;;5451056;26;19996;-63
2024/04/22 05:10:02;;;;;;;;;;;;;;;;;;5451397;26;19936;-63
2024/04/22 05:12:27;;;;;;;;;;;;;;;;;;5452708;26;19933;-63
2024/04/22 05:14:52;;;;;;;;;;;;;;;;;;5454949;26;19997;-63
2024/04/22 05:17:17;;;;;;;;;;;;;;;;;;5449836;26;19928;-63
2024/04/22 05:19:42;;;;;;;;;;;;;;;;;;5451412;26;20403;-63
2024/04/22 05:22:07;;;;;;;;;;;;;;;;;;5451012;26;20495;-63
2024/04/22 05:24:32;;;;;;;;;;;;;;;;;;5450866;26;20425;-63
2024/04/22 05:26:58;;;;;;;;;;;;;;;;;;5450914;26;20233;-62
2024/04/22 05:29:23;;;;;;;;;;;;;;;;;;5450767;26;20330;-63
2024/04/22 05:31:48;;;;;;;;;;;;;;;;;;5450739;26;19940;-65
2024/04/22 05:36:57;;;;;;;;;;;;;;;;;;5437866;26;19993;-62
2024/04/22 05:39:22;;;;;;;;;;;;;;;;;;5450228;26;19937;-62
2024/04/22 05:41:47;;;;;;;;;;;;;;;;;;5450316;26;19940;-62
2024/04/22 05:44:14;;;;;;;;;;;;;;;;;;5455639;26;19936;-62
2024/04/22 05:46:39;;;;;;;;;;;;;;;;;;5449665;26;19976;-62
2024/04/22 05:49:04;;;;;;;;;;;;;;;;;;5449473;26;20053;-62
2024/04/22 05:51:30;;;;;;;;;;;;;;;;;;5450464;26;19934;-62
2024/04/22 05:53:55;;;;;;;;;;;;;;;;;;5450521;26;19935;-62
2024/04/22 05:56:20;;;;;;;;;;;;;;;;;;5450502;26;20001;-62
2024/04/22 05:58:45;;;;;;;;;;;;;;;;;;5455244;26;20704;-62
2024/04/22 06:01:10;;;;;;;;;;;;;;;;;;5450578;26;19928;-62
2024/04/22 06:03:35;;;;;;;;;;;;;;;;;;5450673;26;20406;-61
2024/04/22 06:06:00;;;;;;;;;;;;;;;;;;5441111;26;19936;-60
2024/04/22 06:08:26;;;;;;;;;;;;;;;;;;5415699;26;19936;-60
2024/04/22 06:10:51;;;;;;;;;;;;;;;;;;5419107;26;19940;-60
2024/04/22 06:13:16;;;;;;;;;;;;;;;;;;5455104;26;19935;-60
2024/04/22 06:15:42;;;;;;;;;;;;;;;;;;5450386;26;19929;-60
2024/04/22 06:18:07;;;;;;;;;;;;;;;;;;5450179;26;19940;-60
2024/04/22 06:20:32;;;;;;;;;;;;;;;;;;5443890;26;21511;-60
2024/04/22 06:22:57;;;;;;;;;;;;;;;;;;5436892;26;20369;-60
2024/04/22 06:25:22;;;;;;;;;;;;;;;;;;5439976;26;19980;-59
2024/04/22 06:27:49;;;;;;;;;;;;;;;;;;5421117;26;19929;-60
2024/04/22 06:30:14;;;;;;;;;;;;;;;;;;5432662;26;19932;-60
2024/04/22 06:32:39;;;;;;;;;;;;;;;;;;5431622;26;19928;-60
2024/04/22 06:35:04;;;;;;;;;;;;;;;;;;5447373;26;19994;-60
2024/04/22 06:37:30;;;;;;;;;;;;;;;;;;5450009;26;19956;-60
2024/04/22 06:39:55;;;;;;;;;;;;;;;;;;5450209;26;19929;-60
2024/04/22 06:42:21;;;;;;;;;;;;;;;;;;5450411;26;20478;-61
2024/04/22 06:44:46;;;;;;;;;;;;;;;;;;5458856;26;19928;-61
2024/04/22 06:47:11;;;;;;;;;;;;;;;;;;5456779;26;19981;-61
2024/04/22 06:49:38;;;;;;;;;;;;;;;;;;5439124;26;20369;-60
2024/04/22 06:52:03;;;;;;;;;;;;;;;;;;5449831;26;19968;-60
2024/04/22 06:54:28;;;;;;;;;;;;;;;;;;5450516;26;19929;-62
2024/04/22 06:56:53;;;;;;;;;;;;;;;;;;5449954;26;19932;-61
2024/04/22 06:59:18;;;;;;;;;;;;;;;;;;5453657;26;19929;-61
2024/04/22 07:01:43;;;;;;;;;;;;;;;;;;5450038;26;20023;-60
2024/04/22 07:04:08;;;;;;;;;;;;;;;;;;5449660;26;19944;-59
2024/04/22 07:06:33;;;;;;;;;;;;;;;;;;5449525;26;19935;-60
2024/04/22 07:08:59;;;;;;;;;;;;;;;;;;5449304;26;19955;-60
2024/04/22 07:11:24;;;;;;;;;;;;;;;;;;5449521;26;19936;-60
2024/04/22 07:13:49;;;;;;;;;;;;;;;;;;5453050;26;19928;-60
2024/04/22 07:16:14;;;;;;;;;;;;;;;;;;5449036;26;19936;-61
2024/04/22 07:18:39;;;;;;;;;;;;;;;;;;5449573;26;19932;-60
2024/04/22 07:21:04;;;;;;;;;;;;;;;;;;5449402;26;19957;-61
2024/04/22 07:23:29;;;;;;;;;;;;;;;;;;5448408;26;19929;-61
2024/04/22 07:25:55;;;;;;;;;;;;;;;;;;5448953;26;20373;-61
2024/04/22 07:28:20;;;;;;;;;;;;;;;;;;5449152;26;20463;-61
2024/04/22 07:30:45;;;;;;;;;;;;;;;;;;5449164;26;19928;-61
2024/04/22 07:33:10;;;;;;;;;;;;;;;;;;5449511;26;19936;-60
2024/04/22 07:35:36;;;;;;;;;;;;;;;;;;5451255;26;19939;-60
2024/04/22 07:38:01;;;;;;;;;;;;;;;;;;5452755;26;19939;-60
2024/04/22 07:40:26;;;;;;;;;;;;;;;;;;5452616;26;19936;-61
2024/04/22 07:42:51;;;;;;;;;;;;;;;;;;5454790;26;19935;-60
2024/04/22 07:45:16;;;;;;;;;;;;;;;;;;5452294;26;20269;-60
2024/04/22 07:47:42;;;;;;;;;;;;;;;;;;5452721;26;19928;-60
2024/04/22 07:50:07;;;;;;;;;;;;;;;;;;5452582;26;20011;-60
2024/04/22 07:52:32;;;;;;;;;;;;;;;;;;5451761;26;20195;-60
2024/04/22 07:54:57;;;;;;;;;;;;;;;;;;5452629;26;19928;-60
2024/04/22 07:57:23;;;;;;;;;;;;;;;;;;5452342;26;20013;-60
2024/04/22 07:59:48;;;;;;;;;;;;;;;;;;5454497;26;19936;-60
2024/04/22 08:02:13;;;;;;;;;;;;;;;;;;5452450;26;20629;-60
2024/04/22 08:04:38;;;;;;;;;;;;;;;;;;5452540;26;19936;-60
2024/04/22 08:07:03;;;;;;;;;;;;;;;;;;5439182;26;19929;-61
2024/04/22 08:09:28;;;;;;;;;;;;;;;;;;5446650;26;19956;-60
2024/04/22 08:11:54;;;;;;;;;;;;;;;;;;5450923;26;19928;-61
2024/04/22 08:14:19;;;;;;;;;;;;;;;;;;5454976;26;20357;-60
2024/04/22 08:16:44;;;;;;;;;;;;;;;;;;5450849;26;20261;-61
2024/04/22 08:19:09;;;;;;;;;;;;;;;;;;5452106;26;19936;-60
2024/04/22 08:21:34;;;;;;;;;;;;;;;;;;5452021;26;19928;-61
2024/04/22 08:23:59;;;;;;;;;;;;;;;;;;5452016;26;19936;-61
2024/04/22 08:26:25;;;;;;;;;;;;;;;;;;5451624;26;19949;-60
2024/04/22 08:28:50;;;;;;;;;;;;;;;;;;5451067;26;19928;-60
2024/04/22 08:31:15;;;;;;;;;;;;;;;;;;5450725;26;19929;-60
2024/04/22 08:33:40;;;;;;;;;;;;;;;;;;5450864;26;19956;-60
2024/04/22 08:36:07;;;;;;;;;;;;;;;;;;5451766;26;19929;-61
2024/04/22 08:38:32;;;;;;;;;;;;;;;;;;5451861;26;19935;-60
2024/04/22 08:40:57;;;;;;;;;;;;;;;;;;5450598;26;19933;-60
2024/04/22 08:43:23;;;;;;;;;;;;;;;;;;5451299;26;19949;-61
2024/04/22 08:45:48;;;;;;;;;;;;;;;;;;5436112;26;19936;-60
2024/04/22 08:48:13;;;;;;;;;;;;;;;;;;5449858;26;20268;-60
2024/04/22 08:50:38;;;;;;;;;;;;;;;;;;5451514;26;20261;-59
2024/04/22 08:53:04;;;;;;;;;;;;;;;;;;5451263;26;19968;-60
2024/04/22 08:55:29;;;;;;;;;;;;;;;;;;5451449;26;20393;-60
2024/04/22 08:57:54;;;;;;;;;;;;;;;;;;5453559;26;19928;-60
2024/04/22 09:00:19;;;;;;;;;;;;;;;;;;5451391;26;19928;-60
2024/04/22 09:02:44;;;;;;;;;;;;;;;;;;5451643;26;19936;-60
2024/04/22 09:05:10;;;;;;;;;;;;;;;;;;5451666;26;19935;-60
2024/04/22 09:07:35;;;;;;;;;;;;;;;;;;5451367;26;20373;-61
2024/04/22 09:10:00;;;;;;;;;;;;;;;;;;5451267;26;19936;-61
2024/04/22 09:12:25;;;;;;;;;;;;;;;;;;5452635;26;19929;-61
2024/04/22 09:14:50;;;;;;;;;;;;;;;;;;5451848;26;19959;-61
2024/04/22 09:17:15;;;;;;;;;;;;;;;;;;5451299;26;19929;-60
2024/04/22 09:19:40;;;;;;;;;;;;;;;;;;5451476;26;19928;-60
2024/04/22 09:22:06;;;;;;;;;;;;;;;;;;5451346;26;19936;-61
2024/04/22 09:24:31;;;;;;;;;;;;;;;;;;5450975;26;19940;-61
2024/04/22 09:26:57;;;;;;;;;;;;;;;;;;5450716;26;19928;-61
2024/04/22 09:29:22;;;;;;;;;;;;;;;;;;5450743;26;20272;-61
2024/04/22 09:31:47;;;;;;;;;;;;;;;;;;5451112;26;20362;-61
2024/04/22 09:34:12;;;;;;;;;;;;;;;;;;5450953;26;19936;-62
2024/04/22 09:36:37;;;;;;;;;;;;;;;;;;5451111;26;19928;-62
2024/04/22 09:39:03;;;;;;;;;;;;;;;;;;5449823;26;20286;-61
2024/04/22 09:41:28;;;;;;;;;;;;;;;;;;5435413;26;19940;-61
2024/04/22 09:43:53;;;;;;;;;;;;;;;;;;5451603;26;19936;-61
2024/04/22 09:46:18;;;;;;;;;;;;;;;;;;5450496;26;19929;-61
2024/04/22 09:48:43;;;;;;;;;;;;;;;;;;5450749;26;19928;-61
2024/04/22 09:51:09;;;;;;;;;;;;;;;;;;5450716;26;19928;-61
2024/04/22 09:53:34;;;;;;;;;;;;;;;;;;5450618;26;19928;-61
2024/04/22 09:55:59;;;;;;;;;;;;;;;;;;5450742;26;20698;-62
2024/04/22 09:58:24;;;;;;;;;;;;;;;;;;5450236;26;19929;-61
2024/04/22 10:00:50;;;;;;;;;;;;;;;;;;5450380;26;19987;-61
2024/04/22 10:03:15;;;;;;;;;;;;;;;;;;5450707;26;19928;-61
2024/04/22 10:05:40;;;;;;;;;;;;;;;;;;5451262;26;20426;-60
2024/04/22 10:08:06;;;;;;;;;;;;;;;;;;5447989;26;20334;-61
2024/04/22 10:10:31;;;;;;;;;;;;;;;;;;5451649;26;19936;-61
2024/04/22 10:12:56;;;;;;;;;;;;;;;;;;5451073;26;20582;-61
2024/04/22 10:15:21;;;;;;;;;;;;;;;;;;5451384;26;20265;-62
2024/04/22 10:17:46;;;;;;;;;;;;;;;;;;5479636;26;19960;-62
2024/04/22 10:20:12;;;;;;;;;;;;;;;;;;5451006;26;19940;-63
2024/04/22 10:22:37;;;;;;;;;;;;;;;;;;5450642;26;19996;-61
2024/04/22 10:25:05;;;;;;;;;;;;;;;;;;5450007;26;19935;-60
2024/04/22 10:27:30;;;;;;;;;;;;;;;;;;5451089;26;19936;-62
2024/04/22 10:29:55;;;;;;;;;;;;;;;;;;5450753;26;19928;-61
2024/04/22 10:32:20;;;;;;;;;;;;;;;;;;5451105;26;19929;-62
2024/04/22 10:34:45;;;;;;;;;;;;;;;;;;5451132;26;20377;-60
2024/04/22 10:37:11;;;;;;;;;;;;;;;;;;5449856;26;19928;-61
2024/04/22 10:39:36;;;;;;;;;;;;;;;;;;5450810;26;20365;-61
2024/04/22 10:42:01;;;;;;;;;;;;;;;;;;5450872;26;19928;-61
2024/04/22 10:44:26;;;;;;;;;;;;;;;;;;5482219;26;19928;-63
2024/04/22 10:46:51;;;;;;;;;;;;;;;;;;5486864;26;19943;-63
2024/04/22 10:49:17;;;;;;;;;;;;;;;;;;5485408;26;19928;-63
2024/04/22 10:51:42;;;;;;;;;;;;;;;;;;5450262;26;19929;-63
2024/04/22 10:54:07;;;;;;;;;;;;;;;;;;5450217;26;19953;-63
2024/04/22 10:56:32;;;;;;;;;;;;;;;;;;5450453;26;20004;-62
2024/04/22 10:58:58;;;;;;;;;;;;;;;;;;5450337;26;19928;-62
2024/04/22 11:01:23;;;;;;;;;;;;;;;;;;5450366;26;19928;-62
2024/04/22 11:03:48;;;;;;;;;;;;;;;;;;5450325;26;20353;-62
2024/04/22 11:06:13;;;;;;;;;;;;;;;;;;5450478;26;19933;-63
2024/04/22 11:08:38;;;;;;;;;;;;;;;;;;5450326;26;19966;-63
2024/04/22 11:11:03;;;;;;;;;;;;;;;;;;5453199;26;19928;-63
2024/04/22 11:13:28;;;;;;;;;;;;;;;;;;5453855;26;19929;-63
2024/04/22 11:15:53;;;;;;;;;;;;;;;;;;5453819;26;19929;-63
2024/04/22 11:18:22;;;;;;;;;;;;;;;;;;5453614;26;19928;-63
2024/04/22 11:20:47;;;;;;;;;;;;;;;;;;5453654;26;19929;-63
2024/04/22 11:23:12;;;;;;;;;;;;;;;;;;5453488;26;19935;-63
2024/04/22 11:25:37;;;;;;;;;;;;;;;;;;5453039;26;19932;-63
2024/04/22 11:28:02;;;;;;;;;;;;;;;;;;5453309;26;20056;-63
2024/04/22 11:30:27;;;;;;;;;;;;;;;;;;5453390;26;19997;-62
2024/04/22 11:32:52;;;;;;;;;;;;;;;;;;5453271;26;19997;-63
2024/04/22 11:35:18;;;;;;;;;;;;;;;;;;5453516;26;19936;-63
2024/04/22 11:37:43;;;;;;;;;;;;;;;;;;5453449;26;19936;-61
2024/04/22 11:40:08;;;;;;;;;;;;;;;;;;5453246;26;19929;-61
2024/04/22 11:42:33;;;;;;;;;;;;;;;;;;5456476;26;19936;-60
2024/04/22 11:44:58;;;;;;;;;;;;;;;;;;5489795;26;19960;-60
2024/04/22 11:47:26;;;;;;;;;;;;;;;;;;5457138;26;19935;-61
2024/04/22 11:49:53;;;;;;;;;;;;;;;;;;5453133;26;20249;-62
2024/04/22 11:52:18;;;;;;;;;;;;;;;;;;5452745;26;20364;-62
2024/04/22 11:54:44;;;;;;;;;;;;;;;;;;5452810;26;19928;-62
2024/04/22 11:57:09;;;;;;;;;;;;;;;;;;5453045;26;19939;-62
2024/04/22 11:59:34;;;;;;;;;;;;;;;;;;5453319;26;19928;-62
2024/04/22 12:01:59;;;;;;;;;;;;;;;;;;5453044;26;19936;-62
2024/04/22 12:04:24;;;;;;;;;;;;;;;;;;5453117;26;19932;-62
2024/04/22 12:06:49;;;;;;;;;;;;;;;;;;5449574;26;19932;-62
2024/04/22 12:09:15;;;;;;;;;;;;;;;;;;5453054;26;20334;-62
2024/04/22 12:11:40;;;;;;;;;;;;;;;;;;5453041;26;19944;-62
2024/04/22 12:14:05;;;;;;;;;;;;;;;;;;5478952;26;19928;-62
2024/04/22 12:16:30;;;;;;;;;;;;;;;;;;5489101;26;19928;-62
2024/04/22 12:18:55;;;;;;;;;;;;;;;;;;5471837;26;19929;-62
2024/04/22 12:21:20;;;;;;;;;;;;;;;;;;5451842;26;19952;-62
2024/04/22 12:23:45;;;;;;;;;;;;;;;;;;5452543;26;19932;-62
2024/04/22 12:26:10;;;;;;;;;;;;;;;;;;5452574;26;19936;-62
2024/04/22 12:28:36;;;;;;;;;;;;;;;;;;5452607;26;19984;-61
2024/04/22 12:31:01;;;;;;;;;;;;;;;;;;5452765;26;19935;-62
2024/04/22 12:33:26;;;;;;;;;;;;;;;;;;5452763;26;19940;-62
2024/04/22 12:35:51;;;;;;;;;;;;;;;;;;5452251;26;19929;-61
2024/04/22 12:38:16;;;;;;;;;;;;;;;;;;5452389;26;19929;-61
2024/04/22 12:40:41;;;;;;;;;;;;;;;;;;5452706;26;19933;-61
2024/04/22 12:43:09;;;;;;;;;;;;;;;;;;5463970;26;20596;-61
2024/04/22 12:45:35;;;;;;;;;;;;;;;;;;5466301;26;19929;-62
2024/04/22 12:50:52;;;;;;;;;;;;;;;;;;5452366;26;20026;-61
2024/04/22 12:53:17;;;;;;;;;;;;;;;;;;5451958;26;20286;-62
2024/04/22 12:55:42;;;;;;;;;;;;;;;;;;5452284;26;19933;-61
2024/04/22 12:58:08;;;;;;;;;;;;;;;;;;5452275;26;19939;-61
2024/04/22 13:00:33;;;;;;;;;;;;;;;;;;5452247;26;19936;-61
2024/04/22 13:02:58;;;;;;;;;;;;;;;;;;5452073;26;19955;-63
2024/04/22 13:05:25;;;;;;;;;;;;;;;;;;5452263;26;19928;-62
2024/04/22 13:07:50;;;;;;;;;;;;;;;;;;5452183;26;20016;-62
2024/04/22 13:10:15;;;;;;;;;;;;;;;;;;5452233;26;19940;-62
2024/04/22 13:12:40;;;;;;;;;;;;;;;;;;5456974;26;19936;-62
2024/04/22 13:15:05;;;;;;;;;;;;;;;;;;5488318;26;20270;-63
2024/04/22 13:17:30;;;;;;;;;;;;;;;;;;5488386;26;19928;-63
2024/04/22 13:19:55;;;;;;;;;;;;;;;;;;5488312;26;19960;-63
2024/04/22 13:22:20;;;;;;;;;;;;;;;;;;5488415;26;19928;-63
2024/04/22 13:24:46;;;;;;;;;;;;;;;;;;5470594;26;19929;-63
2024/04/22 13:27:11;;;;;;;;;;;;;;;;;;5451482;26;19929;-63
2024/04/22 13:29:36;;;;;;;;;;;;;;;;;;5451740;26;19934;-63
2024/04/22 13:32:01;;;;;;;;;;;;;;;;;;5451749;26;19928;-63
2024/04/22 13:34:26;;;;;;;;;;;;;;;;;;5451326;26;19928;-63
2024/04/22 13:36:53;;;;;;;;;;;;;;;;;;5451830;26;19936;-62
2024/04/22 13:39:18;;;;;;;;;;;;;;;;;;5451982;26;19929;-62
2024/04/22 13:41:43;;;;;;;;;;;;;;;;;;5450793;26;19929;-62
2024/04/22 13:44:08;;;;;;;;;;;;;;;;;;5478580;26;19928;-63
2024/04/22 13:46:34;;;;;;;;;;;;;;;;;;5469468;26;20349;-62
2024/04/22 13:48:59;;;;;;;;;;;;;;;;;;5451229;26;19944;-62
2024/04/22 13:51:24;;;;;;;;;;;;;;;;;;5451330;26;20360;-62
2024/04/22 13:53:51;;;;;;;;;;;;;;;;;;5451370;26;19928;-62
2024/04/22 13:56:16;;;;;;;;;;;;;;;;;;5451286;26;20365;-62
2024/04/22 13:58:41;;;;;;;;;;;;;;;;;;5450265;26;20024;-62
2024/04/22 14:01:06;;;;;;;;;;;;;;;;;;5451835;26;20357;-62
2024/04/22 14:03:32;;;;;;;;;;;;;;;;;;5451277;26;19928;-62
2024/04/22 14:05:57;;;;;;;;;;;;;;;;;;5451494;26;19936;-62
2024/04/22 14:08:22;;;;;;;;;;;;;;;;;;5451369;26;19936;-62
2024/04/22 14:10:47;;;;;;;;;;;;;;;;;;5451226;26;19928;-62
2024/04/22 14:13:12;;;;;;;;;;;;;;;;;;5464386;26;19935;-62
2024/04/22 14:15:37;;;;;;;;;;;;;;;;;;5487535;26;19928;-61
2024/04/22 14:18:02;;;;;;;;;;;;;;;;;;5487175;26;19928;-59
2024/04/22 14:20:28;;;;;;;;;;;;;;;;;;5487439;26;19931;-60
2024/04/22 14:22:53;;;;;;;;;;;;;;;;;;5487216;26;19996;-59
2024/04/22 14:25:18;;;;;;;;;;;;;;;;;;5487567;26;19996;-60
2024/04/22 14:27:43;;;;;;;;;;;;;;;;;;5464492;26;20357;-59
2024/04/22 14:30:09;;;;;;;;;;;;;;;;;;5450399;26;20261;-60
2024/04/22 14:32:34;;;;;;;;;;;;;;;;;;5450870;26;19929;-61
2024/04/22 14:35:01;;;;;;;;;;;;;;;;;;5450766;26;19932;-60
2024/04/22 14:37:26;;;;;;;;;;;;;;;;;;5450439;26;20077;-60
2024/04/22 14:39:51;;;;;;;;;;;;;;;;;;5450359;26;19957;-60
2024/04/22 14:42:16;;;;;;;;;;;;;;;;;;5450764;26;19940;-60
2024/04/22 14:44:42;;;;;;;;;;;;;;;;;;5485115;26;19928;-60
2024/04/22 14:47:07;;;;;;;;;;;;;;;;;;5487010;26;19932;-59
2024/04/22 14:49:32;;;;;;;;;;;;;;;;;;5481843;26;19936;-60
2024/04/22 14:51:57;;;;;;;;;;;;;;;;;;5450522;26;19928;-60
2024/04/22 14:54:22;;;;;;;;;;;;;;;;;;5455744;26;19939;-60
2024/04/22 14:56:47;;;;;;;;;;;;;;;;;;5466557;26;19996;-61
2024/04/22 14:59:12;;;;;;;;;;;;;;;;;;5471922;26;19943;-62
2024/04/22 15:01:38;;;;;;;;;;;;;;;;;;5472504;26;19928;-60
2024/04/22 15:04:03;;;;;;;;;;;;;;;;;;5457175;26;19933;-60
2024/04/22 15:06:28;;;;;;;;;;;;;;;;;;5449803;26;20365;-58
2024/04/22 15:08:53;;;;;;;;;;;;;;;;;;5449566;26;20733;-60
2024/04/22 15:11:20;;;;;;;;;;;;;;;;;;5447880;26;19961;-60
2024/04/22 15:13:45;;;;;;;;;;;;;;;;;;5454336;26;20026;-59
2024/04/22 15:16:10;;;;;;;;;;;;;;;;;;5449569;26;20296;-60
2024/04/22 15:18:35;;;;;;;;;;;;;;;;;;5449815;26;19943;-60
2024/04/22 15:21:00;;;;;;;;;;;;;;;;;;5449426;26;20280;-60
2024/04/22 15:23:25;;;;;;;;;;;;;;;;;;5449207;26;19936;-60
2024/04/22 15:25:51;;;;;;;;;;;;;;;;;;5448077;26;19997;-61
2024/04/22 15:28:16;;;;;;;;;;;;;;;;;;5449378;26;19939;-61
2024/04/22 15:30:41;;;;;;;;;;;;;;;;;;5448754;26;20261;-61
2024/04/22 15:33:09;;;;;;;;;;;;;;;;;;5448748;26;20382;-61
2024/04/22 15:35:34;;;;;;;;;;;;;;;;;;5448988;26;20004;-61
2024/04/22 15:37:59;;;;;;;;;;;;;;;;;;5449061;26;19960;-62
2024/04/22 15:40:24;;;;;;;;;;;;;;;;;;5443455;26;19940;-62
2024/04/22 15:42:52;;;;;;;;;;;;;;;;;;5456269;26;19928;-61
2024/04/22 15:45:17;;;;;;;;;;;;;;;;;;5478017;26;19936;-62
2024/04/22 15:47:42;;;;;;;;;;;;;;;;;;5448831;26;19944;-61
2024/04/22 15:50:07;;;;;;;;;;;;;;;;;;5448843;26;19933;-61
2024/04/22 15:52:32;;;;;;;;;;;;;;;;;;5448398;26;19935;-61
2024/04/22 15:54:58;;;;;;;;;;;;;;;;;;5449028;26;20253;-60
2024/04/22 15:57:23;;;;;;;;;;;;;;;;;;5450184;26;19936;-61
2024/04/22 15:59:48;;;;;;;;;;;;;;;;;;5452719;26;20268;-61
2024/04/22 16:02:13;;;;;;;;;;;;;;;;;;5453073;26;20402;-61
2024/04/22 16:04:38;;;;;;;;;;;;;;;;;;5440152;26;20272;-61
2024/04/22 16:07:05;;;;;;;;;;;;;;;;;;5432386;26;20269;-61
2024/04/22 16:09:30;;;;;;;;;;;;;;;;;;5441805;26;19960;-61
2024/04/22 16:11:56;;;;;;;;;;;;;;;;;;5441910;26;19997;-62
2024/04/22 16:14:21;;;;;;;;;;;;;;;;;;5466749;26;19936;-62
2024/04/22 16:16:46;;;;;;;;;;;;;;;;;;5452451;26;19936;-62
2024/04/22 16:19:11;;;;;;;;;;;;;;;;;;5452722;26;19935;-62
2024/04/22 16:21:36;;;;;;;;;;;;;;;;;;5451605;26;19939;-61
2024/04/22 16:24:02;;;;;;;;;;;;;;;;;;5452522;26;19936;-61
2024/04/22 16:26:27;;;;;;;;;;;;;;;;;;5452150;26;19998;-60
2024/04/22 16:28:52;;;;;;;;;;;;;;;;;;5452589;26;19928;-61
2024/04/22 16:31:17;;;;;;;;;;;;;;;;;;5452602;26;20357;-60
2024/04/22 16:33:42;;;;;;;;;;;;;;;;;;5452448;26;20261;-60
2024/04/22 16:36:07;;;;;;;;;;;;;;;;;;5452500;26;20297;-60
2024/04/22 16:38:33;;;;;;;;;;;;;;;;;;5452505;26;19929;-59
2024/04/22 16:40:58;;;;;;;;;;;;;;;;;;5451592;26;19983;-59